Time;durP1;ratioP1;P1;durP2;ratioP2;P2;SDS_P1;SDS_P2;PMS_P1;PMS_P2;Temp;Humidity;BMP_temperature;BMP_pressure;BME280_temperature;BME280_humidity;BME280_pressure;Samples;Min_cycle;Max_cycle;Signal;HPM_P1;HPM_P2
2023/08/20 00:01:21;;;;;;;6.35;2.25;;;;;;;18.36;100.00;102004.44;10495459;28;20448;-66
2023/08/20 00:06:22;;;;;;;7.20;1.95;;;;;;;18.49;100.00;101998.00;10495297;28;20029;-66
2023/08/20 00:11:23;;;;;;;7.80;2.55;;;;;;;18.52;100.00;102003.03;10496404;28;20056;-66
2023/08/20 00:16:23;;;;;;;11.57;2.72;;;;;;;18.43;100.00;101993.41;10494888;28;20087;-66
2023/08/20 00:21:24;;;;;;;14.80;2.63;;;;;;;18.41;100.00;102011.97;10495865;28;20171;-66
2023/08/20 00:26:25;;;;;;;9.35;3.83;;;;;;;18.36;100.00;102021.72;10495803;28;20476;-66
2023/08/20 00:31:25;;;;;;;2.97;2.42;;;;;;;18.53;100.00;102029.41;10511034;28;20038;-66
2023/08/20 00:36:25;;;;;;;6.35;3.13;;;;;;;18.74;100.00;102034.53;10495364;28;20033;-66
2023/08/20 00:41:26;;;;;;;10.25;2.67;;;;;;;18.88;100.00;102043.47;10495767;28;20043;-66
2023/08/20 00:46:26;;;;;;;2.58;2.03;;;;;;;18.74;100.00;102042.78;10495120;28;20463;-66
2023/08/20 00:51:27;;;;;;;7.30;2.50;;;;;;;18.61;100.00;102045.59;10495679;28;20521;-65
2023/08/20 00:56:27;;;;;;;5.97;2.72;;;;;;;18.55;100.00;102068.44;10493785;28;20429;-66
2023/08/20 01:01:27;;;;;;;7.53;2.42;;;;;;;18.64;100.00;102058.88;10494958;28;20574;-66
2023/08/20 01:06:33;;;;;;;9.60;3.88;;;;;;;18.73;100.00;102076.78;10495352;28;20097;-67
2023/08/20 01:11:36;;;;;;;8.50;3.28;;;;;;;18.74;100.00;102061.97;10494156;28;20137;-66
2023/08/20 01:16:36;;;;;;;12.45;3.58;;;;;;;18.61;100.00;102051.09;10493794;28;20036;-66
2023/08/20 01:21:54;;;;;;;8.70;2.88;;;;;;;18.41;100.00;102072.31;10500608;28;20510;-66
2023/08/20 01:27:15;;;;;;;8.23;3.30;;;;;;;18.18;100.00;102067.41;10503997;28;20036;-66
2023/08/20 01:32:16;;;;;;;4.68;3.13;;;;;;;17.98;100.00;102062.88;10502539;28;20055;-65
2023/08/20 01:37:16;;;;;;;8.75;3.10;;;;;;;17.88;100.00;102057.84;10503786;28;20125;-65
2023/08/20 01:42:18;;;;;;;7.07;3.08;;;;;;;17.76;100.00;102062.28;10503487;28;20533;-66
2023/08/20 01:47:18;;;;;;;6.80;3.08;;;;;;;17.59;100.00;102059.22;10501970;28;20123;-66
2023/08/20 01:52:18;;;;;;;4.63;2.90;;;;;;;17.52;100.00;102060.31;10502806;28;20111;-66
2023/08/20 01:57:19;;;;;;;8.98;2.95;;;;;;;17.48;100.00;102045.34;10501029;28;20352;-65
2023/08/20 02:02:20;;;;;;;10.98;3.55;;;;;;;17.42;100.00;102047.91;10501158;28;20039;-65
2023/08/20 02:07:20;;;;;;;3.60;2.42;;;;;;;17.28;100.00;102046.22;10501582;28;20143;-66
2023/08/20 02:12:21;;;;;;;5.28;1.67;;;;;;;17.16;100.00;102053.41;10500557;28;20534;-66
2023/08/20 02:17:23;;;;;;;5.47;2.75;;;;;;;17.09;100.00;102060.78;10499345;28;20036;-66
2023/08/20 02:22:23;;;;;;;4.85;3.42;;;;;;;17.02;100.00;102057.22;10499825;28;20529;-66
2023/08/20 02:27:24;;;;;;;5.53;2.90;;;;;;;17.01;100.00;102066.50;10501152;28;20170;-65
2023/08/20 02:32:24;;;;;;;9.02;2.55;;;;;;;17.04;100.00;102063.31;10502188;28;20449;-65
2023/08/20 02:37:25;;;;;;;11.60;3.08;;;;;;;17.17;100.00;102066.91;10501900;28;20425;-66
2023/08/20 02:42:25;;;;;;;6.95;2.45;;;;;;;17.29;100.00;102071.69;10499482;28;20115;-66
2023/08/20 02:47:26;;;;;;;7.60;4.05;;;;;;;17.22;100.00;102085.41;10499891;28;20124;-66
2023/08/20 02:52:26;;;;;;;8.32;3.30;;;;;;;17.19;100.00;102089.41;10499316;28;20036;-67
2023/08/20 02:57:27;;;;;;;4.85;2.28;;;;;;;17.20;100.00;102096.59;10499346;28;20059;-66
2023/08/20 03:02:27;;;;;;;9.73;3.55;;;;;;;17.20;100.00;102110.28;10499560;28;20162;-65
2023/08/20 03:07:28;;;;;;;6.50;3.20;;;;;;;17.10;100.00;102103.53;10499727;28;20036;-66
2023/08/20 03:12:29;;;;;;;11.77;3.38;;;;;;;17.01;100.00;102100.19;10501060;28;20189;-66
2023/08/20 03:17:30;;;;;;;12.05;3.45;;;;;;;16.98;100.00;102099.75;10498962;28;20130;-66
2023/08/20 03:22:30;;;;;;;6.57;3.72;;;;;;;16.88;100.00;102094.69;10498984;28;20037;-66
2023/08/20 03:27:31;;;;;;;4.97;2.85;;;;;;;16.72;100.00;102091.31;10497573;28;20446;-66
2023/08/20 03:32:31;;;;;;;7.60;2.20;;;;;;;16.61;100.00;102083.69;10498155;28;20025;-66
2023/08/20 03:37:32;;;;;;;10.02;3.10;;;;;;;16.58;100.00;102092.31;10496369;28;20390;-66
2023/08/20 03:42:32;;;;;;;4.85;3.15;;;;;;;16.51;100.00;102095.06;10496613;28;20068;-66
2023/08/20 03:47:33;;;;;;;9.65;3.10;;;;;;;16.40;100.00;102087.47;10497819;28;20067;-66
2023/08/20 03:52:33;;;;;;;10.20;3.10;;;;;;;16.40;100.00;102087.47;10495596;28;20033;-66
2023/08/20 03:57:33;;;;;;;6.15;3.50;;;;;;;16.36;100.00;102096.28;10496141;28;20314;-66
2023/08/20 04:02:34;;;;;;;6.90;3.88;;;;;;;16.35;100.00;102109.13;10478757;28;20079;-66
2023/08/20 04:07:35;;;;;;;14.13;3.38;;;;;;;16.34;100.00;102110.16;10496391;28;20032;-65
2023/08/20 04:12:35;;;;;;;13.48;3.95;;;;;;;16.30;100.00;102111.59;10496892;28;20037;-65
2023/08/20 04:17:35;;;;;;;9.15;3.40;;;;;;;16.30;100.00;102118.97;10496620;28;20112;-66
2023/08/20 04:22:37;;;;;;;5.63;4.13;;;;;;;16.26;100.00;102124.00;10495485;28;20078;-66
2023/08/20 04:27:37;;;;;;;12.73;3.92;;;;;;;16.27;100.00;102132.03;10496493;28;20044;-65
2023/08/20 04:32:38;;;;;;;5.13;3.50;;;;;;;16.34;100.00;102137.50;10496156;28;20028;-66
2023/08/20 04:37:38;;;;;;;9.52;3.50;;;;;;;16.34;100.00;102136.66;10495893;28;20047;-66
2023/08/20 04:42:38;;;;;;;3.72;3.17;;;;;;;16.35;100.00;102130.16;10495393;28;20051;-66
2023/08/20 04:47:39;;;;;;;9.07;4.30;;;;;;;16.34;100.00;102129.31;10494894;28;20086;-66
2023/08/20 04:52:40;;;;;;;12.13;4.93;;;;;;;16.33;100.00;102129.50;10493202;28;20103;-66
2023/08/20 04:57:40;;;;;;;5.20;2.88;;;;;;;16.44;100.00;102142.59;10477774;28;20031;-66
2023/08/20 05:02:40;;;;;;;14.75;3.63;;;;;;;16.53;100.00;102144.09;10495431;28;20036;-66
2023/08/20 05:07:41;;;;;;;5.25;3.67;;;;;;;16.64;100.00;102145.34;10492811;28;20064;-66
2023/08/20 05:12:41;;;;;;;9.02;3.97;;;;;;;16.72;100.00;102147.91;10495145;28;20037;-66
2023/08/20 05:17:42;;;;;;;6.68;3.85;;;;;;;16.80;100.00;102144.16;10494797;28;20099;-65
2023/08/20 05:22:42;;;;;;;11.77;4.82;;;;;;;16.81;100.00;102143.94;10493656;28;20085;-66
2023/08/20 05:27:43;;;;;;;9.32;4.18;;;;;;;16.86;100.00;102155.09;10494348;28;20040;-66
2023/08/20 05:32:43;;;;;;;19.90;4.65;;;;;;;16.96;100.00;102150.06;10494385;28;20075;-66
2023/08/20 05:37:43;;;;;;;9.02;3.80;;;;;;;17.03;100.00;102149.22;10476585;28;20162;-66
2023/08/20 05:42:44;;;;;;;10.52;3.33;;;;;;;17.19;100.00;102146.06;10494760;28;20037;-66
2023/08/20 05:47:44;;;;;;;5.95;4.00;;;;;;;18.68;100.00;102145.16;10494071;28;20047;-66
2023/08/20 05:52:45;;;;;;;11.27;3.30;;;;;;;19.97;100.00;102140.84;10493290;28;20475;-66
2023/08/20 05:57:45;;;;;;;14.13;5.18;;;;;;;20.90;100.00;102138.75;10494103;28;20036;-66
2023/08/20 06:02:46;;;;;;;11.48;3.42;;;;;;;21.86;100.00;102138.50;10493942;28;20060;-66
2023/08/20 06:07:46;;;;;;;7.93;3.78;;;;;;;22.68;100.00;102146.50;10498238;28;20139;-66
2023/08/20 06:12:46;;;;;;;6.57;3.03;;;;;;;23.12;100.00;102144.00;10501594;28;20109;-66
2023/08/20 06:17:47;;;;;;;5.30;2.17;;;;;;;23.41;100.00;102156.59;10500769;28;20440;-66
2023/08/20 06:22:47;;;;;;;4.95;2.60;;;;;;;23.66;100.00;102149.78;10501395;28;20052;-66
2023/08/20 06:27:48;;;;;;;8.13;2.63;;;;;;;23.67;100.00;102154.22;10502795;28;20397;-66
2023/08/20 06:32:48;;;;;;;6.00;2.70;;;;;;;24.08;100.00;102152.03;10483001;28;20032;-66
2023/08/20 06:37:48;;;;;;;4.75;2.45;;;;;;;24.41;100.00;102152.97;10499798;28;20058;-66
2023/08/20 06:42:49;;;;;;;5.68;2.13;;;;;;;24.53;100.00;102156.44;10499799;28;20104;-66
2023/08/20 06:47:49;;;;;;;3.25;1.88;;;;;;;25.09;100.00;102156.97;10498497;28;20076;-67
2023/08/20 06:52:50;;;;;;;7.68;2.92;;;;;;;25.52;100.00;102157.88;10498520;28;20053;-67
2023/08/20 06:57:50;;;;;;;8.00;3.22;;;;;;;25.56;100.00;102172.03;10498416;28;20037;-67
2023/08/20 07:02:51;;;;;;;4.60;2.72;;;;;;;25.88;100.00;102172.00;10497976;28;20107;-67
2023/08/20 07:07:51;;;;;;;5.82;2.95;;;;;;;26.34;100.00;102174.94;10499275;28;20531;-66
2023/08/20 07:12:52;;;;;;;6.95;2.30;;;;;;;26.65;96.93;102181.47;10499978;28;20158;-67
2023/08/20 07:17:52;;;;;;;4.47;2.67;;;;;;;26.97;94.20;102195.13;10497891;28;20041;-66
2023/08/20 07:22:52;;;;;;;4.25;2.85;;;;;;;27.29;92.60;102182.91;10498174;28;20036;-66
2023/08/20 07:27:58;;;;;;;7.35;3.78;;;;;;;27.27;81.30;102199.88;10499905;28;20037;-66
2023/08/20 07:32:59;;;;;;;6.45;2.65;;;;;;;27.54;85.06;102194.00;10499641;28;20040;-66
2023/08/20 07:37:59;;;;;;;4.63;2.80;;;;;;;27.70;81.24;102210.69;10500007;28;20340;-66
2023/08/20 07:43:00;;;;;;;2.75;2.22;;;;;;;27.90;78.10;102207.88;10498357;28;20420;-66
2023/08/20 07:48:00;;;;;;;2.05;1.83;;;;;;;28.12;76.58;102215.03;10499419;28;20072;-66
2023/08/20 07:53:01;;;;;;;9.00;3.15;;;;;;;28.38;70.00;102222.16;10498907;28;20157;-66
2023/08/20 07:58:01;;;;;;;13.88;2.58;;;;;;;28.48;70.78;102224.94;10501723;28;20072;-66
2023/08/20 08:03:02;;;;;;;4.47;2.33;;;;;;;28.55;69.27;102223.78;10500639;28;20036;-66
2023/08/20 08:08:02;;;;;;;7.78;2.85;;;;;;;28.88;71.03;102234.19;10499082;28;20088;-66
2023/08/20 08:13:03;;;;;;;5.65;1.85;;;;;;;29.29;69.96;102222.75;10499653;28;20032;-66
2023/08/20 08:18:03;;;;;;;13.88;3.65;;;;;;;29.37;65.66;102229.66;10499858;28;20043;-66
2023/08/20 08:23:04;;;;;;;2.15;1.98;;;;;;;29.71;67.97;102223.19;10499056;28;20162;-66
2023/08/20 08:28:05;;;;;;;3.80;2.80;;;;;;;29.93;65.67;102217.09;10500477;28;20037;-66
2023/08/20 08:33:05;;;;;;;3.53;2.67;;;;;;;30.09;62.97;102218.59;10516509;28;20128;-65
2023/08/20 08:38:06;;;;;;;6.90;2.42;;;;;;;30.10;66.26;102228.63;10480168;28;20036;-64
2023/08/20 08:43:06;;;;;;;10.98;2.88;;;;;;;30.29;58.74;102229.53;10498241;28;20036;-64
2023/08/20 08:48:07;;;;;;;5.22;2.58;;;;;;;30.57;61.27;102236.16;10479596;28;20501;-64
2023/08/20 08:53:07;;;;;;;6.32;2.67;;;;;;;30.68;59.56;102236.84;10497250;28;20044;-64
2023/08/20 08:58:08;;;;;;;8.35;2.13;;;;;;;30.31;60.19;102237.63;10478239;28;20032;-64
2023/08/20 09:03:08;;;;;;;1.55;1.35;;;;;;;30.66;56.76;102239.09;10512305;28;20056;-65
2023/08/20 09:08:09;;;;;;;3.70;1.60;;;;;;;30.85;55.70;102246.69;10493062;28;20061;-65
2023/08/20 09:13:09;;;;;;;8.13;2.30;;;;;;;30.77;53.70;102246.25;10494578;28;20036;-65
2023/08/20 09:18:10;;;;;;;9.02;2.80;;;;;;;31.04;55.29;102239.13;10496148;28;20058;-63
2023/08/20 09:23:13;;;;;;;4.25;2.58;;;;;;;31.81;56.49;102240.59;10497505;28;20076;-65
2023/08/20 09:28:14;;;;;;;7.57;1.98;;;;;;;31.79;50.16;102231.69;10494308;28;20040;-63
2023/08/20 09:33:14;;;;;;;2.17;1.48;;;;;;;31.74;51.09;102246.63;10495005;28;20045;-64
2023/08/20 09:38:15;;;;;;;2.58;1.88;;;;;;;31.74;50.72;102241.84;10492587;28;20059;-64
2023/08/20 09:43:16;;;;;;;9.30;3.00;;;;;;;31.78;52.84;102247.69;10500101;28;20502;-63
2023/08/20 09:48:19;;;;;;;2.20;1.48;;;;;;;32.21;52.85;102238.16;10502019;28;20111;-64
2023/08/20 09:53:26;;;;;;;4.43;2.15;;;;;;;32.33;51.60;102246.88;10501499;28;20020;-62
2023/08/20 09:58:27;;;;;;;4.63;2.78;;;;;;;32.31;52.10;102249.97;10483281;28;20054;-64
2023/08/20 10:03:27;;;;;;;3.53;2.70;;;;;;;32.45;51.70;102250.00;10483761;28;20090;-64
2023/08/20 10:08:28;;;;;;;2.88;2.65;;;;;;;32.28;50.90;102245.00;10500836;28;20072;-64
2023/08/20 10:13:28;;;;;;;6.70;1.77;;;;;;;32.64;52.14;102247.06;10483449;28;20036;-64
2023/08/20 10:18:29;;;;;;;6.38;1.58;;;;;;;32.36;46.90;102241.47;10501469;28;20144;-63
2023/08/20 10:23:29;;;;;;;6.68;2.05;;;;;;;32.22;49.46;102237.00;10516555;28;20063;-65
2023/08/20 10:28:31;;;;;;;6.80;2.00;;;;;;;32.44;50.37;102242.72;10499965;28;20071;-65
2023/08/20 10:33:33;;;;;;;2.40;2.22;;;;;;;32.30;46.60;102236.28;10499546;28;20457;-65
2023/08/20 10:38:37;;;;;;;5.60;1.60;;;;;;;32.03;45.58;102242.72;10498610;28;20077;-65
2023/08/20 10:43:45;;;;;;;2.20;1.83;;;;;;;32.16;47.54;102236.28;10498675;28;20029;-65
2023/08/20 10:49:06;;;;;;;5.20;1.73;;;;;;;32.64;46.20;102241.44;10500129;28;20024;-65
2023/08/20 10:54:10;;;;;;;3.50;2.38;;;;;;;32.55;45.43;102227.34;10497569;28;20047;-65
2023/08/20 10:59:17;;;;;;;2.28;1.65;;;;;;;32.39;47.73;102235.25;10499472;28;20104;-65
2023/08/20 11:04:18;;;;;;;4.10;2.10;;;;;;;32.68;47.60;102233.25;10500270;28;20061;-65
2023/08/20 11:09:19;;;;;;;9.07;2.20;;;;;;;32.68;46.84;102224.84;10497332;28;20049;-65
2023/08/20 11:14:20;;;;;;;3.05;2.38;;;;;;;32.98;47.41;102224.13;10481817;28;20489;-65
2023/08/20 11:19:23;;;;;;;1.90;1.80;;;;;;;33.23;45.57;102227.44;10515343;28;20123;-65
2023/08/20 11:24:23;;;;;;;6.93;2.22;;;;;;;32.97;45.40;102224.44;10481249;28;20028;-65
2023/08/20 11:29:25;;;;;;;2.17;1.30;;;;;;;33.03;44.95;102215.59;10497203;28;20036;-65
2023/08/20 11:34:26;;;;;;;5.00;1.77;;;;;;;33.69;46.74;102203.78;10481652;28;20047;-65
2023/08/20 11:39:29;;;;;;;3.95;1.27;;;;;;;33.26;41.52;102216.41;10496334;28;20495;-64
2023/08/20 11:44:45;;;;;;;6.00;1.77;;;;;;;33.29;41.88;102214.94;10497948;28;20036;-64
2023/08/20 11:49:45;;;;;;;2.38;1.48;;;;;;;33.22;39.90;102229.44;10496867;28;20150;-64
2023/08/20 11:54:46;;;;;;;2.25;1.42;;;;;;;32.94;42.23;102225.88;10480408;28;20467;-64
2023/08/20 11:59:46;;;;;;;1.95;1.35;;;;;;;33.41;43.34;102234.84;10498757;28;20048;-64
2023/08/20 12:04:50;;;;;;;1.20;0.83;;;;;;;33.82;42.29;102235.72;10496858;28;20494;-65
2023/08/20 12:09:50;;;;;;;1.60;1.50;;;;;;;34.12;41.51;102234.06;10460583;28;20296;-65
2023/08/20 12:14:51;;;;;;;2.00;1.52;;;;;;;33.36;40.52;102234.97;10478976;28;20040;-65
2023/08/20 12:19:51;;;;;;;1.60;1.50;;;;;;;32.38;43.93;102238.34;10477339;28;20063;-65
2023/08/20 12:24:53;;;;;;;7.28;3.05;;;;;;;31.92;44.88;102247.72;10494130;28;20040;-65
2023/08/20 12:29:53;;;;;;;1.92;1.55;;;;;;;31.63;46.17;102239.56;10495594;28;20488;-65
2023/08/20 12:34:54;;;;;;;9.15;2.30;;;;;;;31.17;47.42;102232.75;10494381;28;20175;-65
2023/08/20 12:39:54;;;;;;;6.47;3.58;;;;;;;31.43;45.96;102223.94;10495674;28;20067;-65
2023/08/20 12:44:55;;;;;;;5.90;2.97;;;;;;;32.79;45.70;102227.06;10495129;28;20075;-65
2023/08/20 12:49:55;;;;;;;1.70;1.60;;;;;;;33.08;46.11;102220.22;10495335;28;20060;-65
2023/08/20 12:54:55;;;;;;;1.90;1.60;;;;;;;33.16;45.94;102227.06;10494581;28;20168;-65
2023/08/20 12:59:56;;;;;;;2.95;2.58;;;;;;;33.03;46.31;102221.19;10495170;28;20040;-65
2023/08/20 13:04:56;;;;;;;2.47;1.15;;;;;;;33.36;45.98;102226.53;10495542;28;20036;-65
2023/08/20 13:09:57;;;;;;;2.25;1.77;;;;;;;33.41;45.94;102225.56;10494599;28;20180;-65
2023/08/20 13:14:58;;;;;;;1.92;1.58;;;;;;;33.47;46.46;102224.28;10494322;28;20098;-65
2023/08/20 13:19:58;;;;;;;3.83;1.77;;;;;;;33.26;46.56;102235.22;10496415;28;20043;-65
2023/08/20 13:24:58;;;;;;;2.67;2.03;;;;;;;31.54;47.45;102230.19;10494979;28;20037;-66
2023/08/20 13:29:59;;;;;;;3.13;1.67;;;;;;;31.97;46.18;102244.78;10492498;28;20495;-64
2023/08/20 13:34:59;;;;;;;1.48;1.38;;;;;;;31.05;46.84;102238.00;10492039;28;20040;-64
2023/08/20 13:40:00;;;;;;;3.53;1.83;;;;;;;31.18;46.41;102240.03;10491688;28;20049;-64
2023/08/20 13:45:00;;;;;;;5.90;2.13;;;;;;;31.72;44.93;102224.53;10492509;28;20090;-65
2023/08/20 13:50:04;;;;;;;2.15;1.45;;;;;;;32.13;45.51;102228.50;10494013;28;20035;-64
2023/08/20 13:55:05;;;;;;;0.93;0.93;;;;;;;32.01;45.32;102228.22;10476575;28;20052;-65
2023/08/20 14:00:09;;;;;;;1.60;1.48;;;;;;;31.62;45.72;102230.34;10494093;28;20075;-64
2023/08/20 14:05:09;;;;;;;2.58;1.73;;;;;;;31.73;47.23;102230.97;10475662;28;20108;-65
2023/08/20 14:10:10;;;;;;;1.50;1.40;;;;;;;31.52;47.16;102227.69;10492880;28;20449;-64
2023/08/20 14:15:11;;;;;;;1.08;1.08;;;;;;;31.42;46.77;102225.09;10492904;28;20046;-64
2023/08/20 14:20:11;;;;;;;1.17;1.10;;;;;;;31.33;46.35;102224.94;10493368;28;20044;-64
2023/08/20 14:25:12;;;;;;;3.38;1.77;;;;;;;31.19;47.19;102218.47;10494836;28;20365;-67
2023/08/20 14:30:13;;;;;;;3.05;1.35;;;;;;;30.09;48.34;102224.19;10502077;28;20033;-67
2023/08/20 14:35:13;;;;;;;1.48;1.40;;;;;;;29.49;46.47;102226.47;10497285;28;20527;-69
2023/08/20 14:40:13;;;;;;;3.38;1.83;;;;;;;28.73;46.07;102232.31;10499165;28;20119;-69
2023/08/20 14:45:14;;;;;;;2.47;1.85;;;;;;;28.35;46.44;102235.84;10499488;28;20036;-67
2023/08/20 14:50:14;;;;;;;14.07;3.13;;;;;;;28.13;48.12;102227.84;10500773;28;20094;-66
2023/08/20 14:55:15;;;;;;;1.40;1.30;;;;;;;28.46;47.25;102223.53;10499936;28;20033;-67
2023/08/20 15:00:17;;;;;;;2.10;1.73;;;;;;;28.78;48.23;102220.31;10500037;28;20134;-66
2023/08/20 15:05:17;;;;;;;3.00;1.88;;;;;;;28.67;48.95;102222.31;10499380;28;20396;-66
2023/08/20 15:10:18;;;;;;;1.80;1.70;;;;;;;28.02;49.42;102218.69;10500018;28;20064;-66
2023/08/20 15:15:20;;;;;;;3.15;1.75;;;;;;;27.49;49.84;102210.69;10501228;28;20028;-67
2023/08/20 15:20:20;;;;;;;3.20;1.90;;;;;;;27.35;50.38;102221.56;10498910;28;20187;-66
2023/08/20 15:25:21;;;;;;;1.58;1.45;;;;;;;26.74;50.09;102218.72;10498902;28;20178;-67
2023/08/20 15:30:25;;;;;;;5.20;1.90;;;;;;;26.34;49.21;102211.06;10496476;28;20029;-66
2023/08/20 15:35:25;;;;;;;5.85;1.73;;;;;;;26.05;50.02;102211.47;10498705;28;20041;-66
2023/08/20 15:40:26;;;;;;;10.25;1.85;;;;;;;25.77;50.01;102209.06;10511545;28;20094;-66
2023/08/20 15:45:26;;;;;;;1.55;1.45;;;;;;;25.57;50.38;102204.22;10498352;28;20072;-67
2023/08/20 15:50:28;;;;;;;7.57;2.22;;;;;;;25.38;50.68;102199.09;10479748;28;20088;-66
2023/08/20 15:55:28;;;;;;;4.20;2.20;;;;;;;25.14;50.96;102195.84;10496098;28;20048;-66
2023/08/20 16:00:29;;;;;;;3.30;1.50;;;;;;;24.93;50.97;102205.91;10496608;28;20036;-66
2023/08/20 16:05:30;;;;;;;3.65;1.75;;;;;;;24.66;51.18;102196.75;10496812;28;20033;-66
2023/08/20 16:10:30;;;;;;;3.30;1.83;;;;;;;24.48;51.41;102197.94;10494523;28;20128;-66
2023/08/20 16:15:31;;;;;;;4.22;1.73;;;;;;;24.29;51.59;102200.19;10497416;28;20474;-66
2023/08/20 16:20:33;;;;;;;1.92;0.98;;;;;;;24.26;51.83;102197.94;10496450;28;20063;-66
2023/08/20 16:25:36;;;;;;;8.57;2.90;;;;;;;24.25;51.91;102194.34;10496517;28;20036;-66
2023/08/20 16:30:40;;;;;;;4.25;2.45;;;;;;;24.16;52.12;102190.34;10494112;28;20456;-66
2023/08/20 16:35:41;;;;;;;5.00;1.50;;;;;;;24.06;52.73;102191.03;10494087;28;20063;-66
2023/08/20 16:40:41;;;;;;;10.75;2.90;;;;;;;24.03;53.00;102193.50;10494439;28;20055;-66
2023/08/20 16:45:41;;;;;;;3.60;2.30;;;;;;;23.98;52.87;102197.00;10496536;28;20040;-66
2023/08/20 16:50:43;;;;;;;2.20;2.05;;;;;;;23.86;52.90;102187.97;10494494;28;20036;-66
2023/08/20 16:55:50;;;;;;;4.30;2.00;;;;;;;23.73;53.13;102200.25;10477402;28;20381;-66
2023/08/20 17:00:51;;;;;;;6.88;2.00;;;;;;;23.64;53.79;102194.31;10498233;28;20048;-66
2023/08/20 17:06:02;;;;;;;5.93;1.85;;;;;;;23.52;53.82;102195.50;10496730;28;20040;-66
2023/08/20 17:11:09;;;;;;;3.22;2.08;;;;;;;23.44;53.92;102194.81;10500016;28;20057;-66
2023/08/20 17:16:09;;;;;;;6.70;2.78;;;;;;;23.38;54.14;102181.16;10493284;28;20040;-66
2023/08/20 17:21:10;;;;;;;11.07;2.20;;;;;;;23.33;55.07;102186.63;10476398;28;20028;-66
2023/08/20 17:26:10;;;;;;;2.30;1.48;;;;;;;23.34;54.89;102175.31;10492838;28;20100;-66
2023/08/20 17:31:11;;;;;;;9.15;2.65;;;;;;;23.26;55.04;102177.66;10492986;28;20112;-66
2023/08/20 17:36:11;;;;;;;8.85;2.10;;;;;;;23.15;55.04;102177.47;10493403;28;20084;-66
2023/08/20 17:41:12;;;;;;;6.65;2.83;;;;;;;23.06;55.42;102175.38;10493518;28;20090;-66
2023/08/20 17:46:12;;;;;;;5.78;2.35;;;;;;;22.92;55.60;102185.91;10493770;28;20576;-66
2023/08/20 17:51:13;;;;;;;2.40;1.90;;;;;;;22.84;55.95;102192.66;10476069;28;20040;-66
2023/08/20 17:56:14;;;;;;;4.05;1.40;;;;;;;22.70;55.96;102188.53;10493453;28;20037;-66
2023/08/20 18:01:14;;;;;;;2.80;1.73;;;;;;;22.58;56.15;102185.81;10495865;28;20079;-66
2023/08/20 18:06:14;;;;;;;3.50;2.33;;;;;;;22.46;56.21;102194.16;10483568;28;20052;-66
2023/08/20 18:11:15;;;;;;;6.78;2.10;;;;;;;22.39;56.76;102193.44;10501424;28;20091;-66
2023/08/20 18:16:16;;;;;;;3.17;1.85;;;;;;;22.25;56.58;102200.34;10501289;28;20032;-66
2023/08/20 18:21:16;;;;;;;3.92;1.55;;;;;;;22.13;57.33;102196.75;10500531;28;20107;-66
2023/08/20 18:26:16;;;;;;;2.58;1.92;;;;;;;21.99;57.51;102198.94;10499994;28;20028;-66
2023/08/20 18:31:17;;;;;;;10.30;3.90;;;;;;;21.85;57.67;102201.09;10499369;28;20042;-66
2023/08/20 18:36:17;;;;;;;6.80;3.33;;;;;;;21.69;57.88;102207.34;10500417;28;20071;-66
2023/08/20 18:41:21;;;;;;;8.07;2.45;;;;;;;21.51;57.99;102202.81;10487851;28;20464;-66
2023/08/20 18:46:21;;;;;;;2.67;1.50;;;;;;;21.38;58.01;102208.53;10500164;28;20147;-66
2023/08/20 18:51:22;;;;;;;3.20;1.75;;;;;;;21.21;58.39;102211.94;10498978;28;20379;-65
2023/08/20 18:56:23;;;;;;;2.40;2.00;;;;;;;21.01;58.50;102209.50;10499318;28;20441;-66
2023/08/20 19:01:23;;;;;;;6.70;2.42;;;;;;;20.91;58.90;102220.25;10499561;28;20051;-66
2023/08/20 19:06:24;;;;;;;2.88;2.03;;;;;;;20.76;59.25;102217.91;10498964;28;20174;-66
2023/08/20 19:11:24;;;;;;;4.07;1.77;;;;;;;20.58;59.84;102229.84;10496479;28;20092;-66
2023/08/20 19:16:24;;;;;;;5.05;1.80;;;;;;;20.42;60.04;102238.66;10499405;28;20040;-66
2023/08/20 19:21:25;;;;;;;9.13;2.55;;;;;;;20.33;60.29;102237.31;10497474;28;20482;-66
2023/08/20 19:26:26;;;;;;;3.55;2.13;;;;;;;20.19;60.45;102237.44;10480433;28;20101;-65
2023/08/20 19:31:27;;;;;;;3.13;2.40;;;;;;;20.08;60.87;102246.47;10479785;28;20082;-66
2023/08/20 19:36:27;;;;;;;4.82;3.10;;;;;;;19.93;61.31;102254.25;10498812;28;20054;-66
2023/08/20 19:41:27;;;;;;;2.97;2.30;;;;;;;19.86;62.06;102261.72;10499501;28;20040;-65
2023/08/20 19:46:28;;;;;;;2.50;1.80;;;;;;;19.74;62.69;102261.63;10481546;28;20040;-66
2023/08/20 19:51:28;;;;;;;4.70;1.60;;;;;;;19.57;64.64;102269.56;10499205;28;20056;-65
2023/08/20 19:56:29;;;;;;;4.05;2.15;;;;;;;19.28;69.30;102254.59;10495631;28;20053;-66
2023/08/20 20:01:30;;;;;;;1.67;1.58;;;;;;;19.11;68.98;102258.91;10478742;28;20468;-66
2023/08/20 20:06:30;;;;;;;2.30;1.80;;;;;;;19.01;69.16;102270.38;10495515;28;20036;-66
2023/08/20 20:11:30;;;;;;;5.05;2.22;;;;;;;18.98;72.41;102270.81;10478606;28;20105;-65
2023/08/20 20:16:31;;;;;;;6.78;2.45;;;;;;;18.94;73.83;102280.56;10494942;28;20033;-66
2023/08/20 20:21:32;;;;;;;2.53;2.33;;;;;;;18.88;73.41;102276.78;10495793;28;20033;-66
2023/08/20 20:26:32;;;;;;;5.57;2.65;;;;;;;18.87;72.73;102285.25;10494165;28;20131;-66
2023/08/20 20:31:33;;;;;;;5.45;1.92;;;;;;;18.80;72.83;102283.38;10494183;28;20423;-66
2023/08/20 20:36:33;;;;;;;2.78;1.45;;;;;;;18.74;72.57;102278.78;10494259;28;20078;-66
2023/08/20 20:41:34;;;;;;;4.85;2.17;;;;;;;18.62;73.37;102274.16;10495070;28;20494;-66
2023/08/20 20:46:34;;;;;;;5.88;2.20;;;;;;;18.53;73.97;102276.28;10493999;28;20039;-65
2023/08/20 20:51:35;;;;;;;2.55;2.35;;;;;;;18.48;73.98;102278.84;10493370;28;20139;-65
2023/08/20 20:56:35;;;;;;;2.88;2.15;;;;;;;18.48;74.80;102292.56;10493525;28;20197;-65
2023/08/20 21:01:35;;;;;;;4.13;1.70;;;;;;;18.41;74.75;102289.84;10476148;28;20041;-66
2023/08/20 21:06:36;;;;;;;2.97;1.63;;;;;;;18.31;75.04;102287.56;10493995;28;20039;-66
2023/08/20 21:11:36;;;;;;;4.32;1.42;;;;;;;18.26;75.66;102290.09;10476426;28;20055;-66
2023/08/20 21:16:37;;;;;;;2.35;1.33;;;;;;;18.20;75.52;102287.38;10476214;28;20093;-66
2023/08/20 21:21:39;;;;;;;2.63;1.83;;;;;;;18.20;76.34;102290.13;10494741;28;20110;-66
2023/08/20 21:26:40;;;;;;;5.65;2.17;;;;;;;18.12;76.48;102285.69;10493576;28;20029;-66
2023/08/20 21:31:40;;;;;;;3.90;2.63;;;;;;;18.15;77.97;102292.63;10494181;28;20504;-66
2023/08/20 21:36:41;;;;;;;3.70;1.90;;;;;;;18.19;78.50;102282.94;10496609;28;20115;-66
2023/08/20 21:41:41;;;;;;;3.75;2.22;;;;;;;18.12;78.24;102293.91;10485174;28;20401;-66
2023/08/20 21:46:42;;;;;;;3.42;2.17;;;;;;;18.02;78.51;102296.25;10502465;28;20040;-66
2023/08/20 21:51:42;;;;;;;5.13;2.75;;;;;;;17.99;79.52;102291.19;10500817;28;20144;-66
2023/08/20 21:56:42;;;;;;;5.57;3.00;;;;;;;17.99;79.85;102293.94;10501889;28;20453;-65
2023/08/20 22:01:43;;;;;;;8.88;2.90;;;;;;;17.96;79.83;102294.34;10501871;28;20115;-66
2023/08/20 22:06:43;;;;;;;13.27;2.67;;;;;;;17.87;80.06;102293.75;10500410;28;20554;-65
2023/08/20 22:11:44;;;;;;;2.08;1.88;;;;;;;17.80;80.72;102288.25;10501072;28;20056;-66
2023/08/20 22:16:44;;;;;;;5.22;2.63;;;;;;;17.83;81.00;102284.25;10503870;28;20048;-65
2023/08/20 22:21:46;;;;;;;5.47;2.47;;;;;;;17.87;81.53;102286.38;10501475;28;20066;-66
2023/08/20 22:26:47;;;;;;;2.03;1.92;;;;;;;17.90;81.43;102293.34;10500166;28;20029;-65
2023/08/20 22:31:47;;;;;;;4.95;2.00;;;;;;;17.78;83.12;102292.28;10500369;28;20028;-65
2023/08/20 22:36:48;;;;;;;5.03;1.95;;;;;;;17.66;84.55;102290.13;10499502;28;20496;-66
2023/08/20 22:41:49;;;;;;;3.67;2.22;;;;;;;17.58;86.14;102289.50;10501189;28;20044;-65
2023/08/20 22:46:49;;;;;;;4.47;2.17;;;;;;;17.51;86.03;102281.28;10482392;28;20449;-66
2023/08/20 22:51:50;;;;;;;2.33;1.83;;;;;;;17.51;85.54;102280.44;10499481;28;20087;-65
2023/08/20 22:56:50;;;;;;;3.67;2.05;;;;;;;17.44;85.45;102281.28;10498124;28;20050;-66